Time;durP1;ratioP1;P1;durP2;ratioP2;P2;SDS_P1;SDS_P2;PMS_P1;PMS_P2;Temp;Humidity;BMP_temperature;BMP_pressure;BME280_temperature;BME280_humidity;BME280_pressure;Samples;Min_cycle;Max_cycle;Signal;HPM_P1;HPM_P2
2023/12/11 00:01:32;;;;;;;13.80;4.90;;;;;;;4.09;100.00;99373.70;105240;1260;71431;-51
2023/12/11 00:04:00;;;;;;;11.30;5.60;;;;;;;4.10;100.00;99373.34;105175;1256;82870;-53
2023/12/11 00:06:29;;;;;;;15.20;5.80;;;;;;;4.11;100.00;99372.27;105180;1257;71524;-52
2023/12/11 00:08:57;;;;;;;16.20;5.30;;;;;;;4.12;100.00;99366.89;105120;1260;69144;-54
2023/12/11 00:11:25;;;;;;;12.70;5.30;;;;;;;4.12;100.00;99363.25;105164;1261;69164;-52
2023/12/11 00:13:54;;;;;;;16.20;5.80;;;;;;;4.11;100.00;99353.92;105152;1256;73985;-52
2023/12/11 00:16:22;;;;;;;18.70;5.90;;;;;;;4.12;100.00;99345.95;105149;1262;81545;-51
2023/12/11 00:18:50;;;;;;;17.60;5.80;;;;;;;4.11;100.00;99343.55;105100;1258;72056;-52
2023/12/11 00:21:19;;;;;;;14.30;5.40;;;;;;;4.11;100.00;99342.73;105249;1261;69911;-53
2023/12/11 00:23:47;;;;;;;14.40;5.20;;;;;;;4.09;100.00;99342.09;105300;1261;69138;-53
2023/12/11 00:26:15;;;;;;;18.50;6.40;;;;;;;4.06;100.00;99338.34;105108;1257;72904;-53
2023/12/11 00:28:47;;;;;;;16.20;5.40;;;;;;;4.04;100.00;99342.20;105375;1257;82435;-54
2023/12/11 00:31:15;;;;;;;17.20;5.00;;;;;;;4.00;100.00;99340.91;105162;1260;71646;-53
2023/12/11 00:33:44;;;;;;;18.90;6.30;;;;;;;3.98;100.00;99341.65;105154;1260;69117;-53
2023/12/11 00:36:12;;;;;;;16.10;5.80;;;;;;;3.97;100.00;99344.46;105088;1262;69882;-55
2023/12/11 00:38:40;;;;;;;20.10;7.60;;;;;;;3.96;100.00;99342.60;105136;1256;72808;-56
2023/12/11 00:41:09;;;;;;;26.10;11.00;;;;;;;3.92;100.00;99340.98;105152;1260;81563;-57
2023/12/11 00:43:37;;;;;;;45.80;16.90;;;;;;;3.87;100.00;99326.08;105126;1262;72098;-56
2023/12/11 00:46:14;;;;;;;38.60;15.10;;;;;;;3.83;100.00;99318.94;105192;1257;69090;-56
2023/12/11 00:48:42;;;;;;;34.40;14.70;;;;;;;3.80;100.00;99321.41;105233;1260;69125;-56
2023/12/11 00:51:18;;;;;;;40.90;19.70;;;;;;;3.76;100.00;99320.66;105215;1256;72704;-57
2023/12/11 00:53:47;;;;;;;45.60;24.00;;;;;;;3.71;100.00;99316.30;105176;1261;81857;-55
2023/12/11 00:56:16;;;;;;;52.40;26.50;;;;;;;3.67;100.00;99307.41;105174;1257;71715;-56
2023/12/11 00:58:44;;;;;;;45.60;23.30;;;;;;;3.64;100.00;99301.31;105124;1259;69133;-56
2023/12/11 01:01:12;;;;;;;33.10;13.90;;;;;;;3.61;100.00;99297.05;105139;1262;69289;-56
2023/12/11 01:03:40;;;;;;;26.10;10.30;;;;;;;3.58;100.00;99289.34;105175;1260;72800;-56
2023/12/11 01:06:09;;;;;;;22.50;9.90;;;;;;;3.56;100.00;99289.38;105196;1262;82767;-56
2023/12/11 01:08:38;;;;;;;25.40;10.00;;;;;;;3.54;100.00;99287.90;105114;1256;70774;-56
2023/12/11 01:11:08;;;;;;;22.10;8.40;;;;;;;3.51;100.00;99291.25;105176;1257;69180;-56
2023/12/11 01:13:37;;;;;;;21.90;7.90;;;;;;;3.50;100.00;99292.83;105262;1256;69089;-56
2023/12/11 01:16:06;;;;;;;19.60;8.10;;;;;;;3.48;100.00;99292.54;105221;1261;72121;-57
2023/12/11 01:18:35;;;;;;;19.90;7.10;;;;;;;3.47;100.00;99275.48;105210;1260;81875;-56
2023/12/11 01:21:04;;;;;;;18.60;7.50;;;;;;;3.47;100.00;99267.20;105237;1256;71723;-57
2023/12/11 01:23:32;;;;;;;18.40;7.10;;;;;;;3.46;100.00;99260.48;105249;1260;69156;-56
2023/12/11 01:26:00;;;;;;;18.20;7.20;;;;;;;3.44;100.00;99253.98;105138;1261;69199;-55
2023/12/11 01:28:29;;;;;;;19.50;6.70;;;;;;;3.45;100.00;99261.88;105212;1262;72850;-56
2023/12/11 01:30:57;;;;;;;18.40;7.50;;;;;;;3.46;100.00;99273.61;105223;1260;81422;-57
2023/12/11 01:33:25;;;;;;;17.20;6.40;;;;;;;3.44;100.00;99281.07;105151;1257;71940;-57
2023/12/11 01:35:53;;;;;;;15.30;6.70;;;;;;;3.42;100.00;99276.80;105199;1260;69675;-57
2023/12/11 01:38:22;;;;;;;17.30;5.80;;;;;;;3.40;100.00;99267.52;105144;1260;69191;-56
2023/12/11 01:40:50;;;;;;;15.10;6.00;;;;;;;3.40;100.00;99255.44;105238;1256;74629;-56
2023/12/11 01:43:19;;;;;;;13.50;5.40;;;;;;;3.42;100.00;99240.73;105160;1262;81375;-57
2023/12/11 01:46:03;;;;;;;15.40;5.30;;;;;;;3.44;100.00;99227.36;105191;1262;71642;-56
2023/12/11 01:48:32;;;;;;;15.90;5.10;;;;;;;3.49;100.00;99213.27;105184;1256;69196;-56
2023/12/11 01:51:02;;;;;;;14.20;4.80;;;;;;;3.53;100.00;99205.88;105209;1262;69171;-57
2023/12/11 01:53:31;;;;;;;12.40;5.00;;;;;;;3.59;100.00;99193.28;105204;1257;72988;-56
2023/12/11 01:56:00;;;;;;;14.70;5.00;;;;;;;3.61;100.00;99188.05;105197;1262;81735;-55
2023/12/11 01:58:29;;;;;;;14.90;5.40;;;;;;;3.59;100.00;99184.64;105192;1257;72298;-56
2023/12/11 02:00:58;;;;;;;11.00;4.90;;;;;;;3.58;100.00;99179.33;105196;1262;69125;-56
2023/12/11 02:03:27;;;;;;;17.70;4.60;;;;;;;3.60;100.00;99186.52;105205;1256;69196;-55
2023/12/11 02:05:55;;;;;;;14.90;5.00;;;;;;;3.61;100.00;99186.14;105149;1257;72780;-56
2023/12/11 02:08:24;;;;;;;14.90;4.70;;;;;;;3.62;100.00;99187.33;105261;1256;81967;-55
2023/12/11 02:10:54;;;;;;;11.60;3.70;;;;;;;3.66;100.00;99189.10;105099;1256;70160;-55
2023/12/11 02:13:22;;;;;;;10.10;3.30;;;;;;;3.71;100.00;99193.63;105153;1257;69262;-57
2023/12/11 02:15:51;;;;;;;9.80;3.50;;;;;;;3.77;100.00;99193.63;105136;1262;69133;-57
2023/12/11 02:18:19;;;;;;;10.00;3.90;;;;;;;3.84;100.00;99191.88;105232;1257;72952;-58
2023/12/11 02:20:48;;;;;;;8.50;3.30;;;;;;;3.91;100.00;99184.74;105212;1262;81370;-57
2023/12/11 02:23:16;;;;;;;8.80;3.10;;;;;;;3.96;100.00;99175.96;105187;1257;72252;-57
2023/12/11 02:25:49;;;;;;;9.70;4.10;;;;;;;3.99;100.00;99171.73;105145;1257;69204;-56
2023/12/11 02:28:17;;;;;;;19.20;6.90;;;;;;;4.02;100.00;99167.99;105218;1258;69222;-57
2023/12/11 02:30:49;;;;;;;23.60;8.70;;;;;;;4.05;100.00;99158.94;105186;1257;73111;-56
2023/12/11 02:33:18;;;;;;;19.70;8.60;;;;;;;4.06;100.00;99146.97;105317;1261;81896;-57
2023/12/11 02:35:46;;;;;;;19.60;9.20;;;;;;;4.06;100.00;99133.67;105167;1256;71804;-57
2023/12/11 02:38:14;;;;;;;16.40;8.10;;;;;;;4.07;100.00;99123.27;105099;1256;69083;-58
2023/12/11 02:40:42;;;;;;;11.50;4.70;;;;;;;4.06;100.00;99120.02;105401;1260;69179;-55
2023/12/11 02:43:11;;;;;;;13.80;5.50;;;;;;;4.06;100.00;99120.39;105204;1257;73246;-56
2023/12/11 02:45:39;;;;;;;19.00;9.50;;;;;;;4.06;100.00;99098.78;105140;1260;81571;-56
2023/12/11 02:48:08;;;;;;;12.70;5.20;;;;;;;4.06;100.00;99102.05;105109;1262;73247;-56
2023/12/11 02:50:36;;;;;;;15.60;5.00;;;;;;;4.06;100.00;99097.38;105223;1257;69124;-56
2023/12/11 02:53:04;;;;;;;9.80;3.50;;;;;;;4.07;100.00;99100.61;105127;1261;69828;-56
2023/12/11 02:55:32;;;;;;;12.70;3.80;;;;;;;4.08;100.00;99098.69;105207;1257;73930;-55
2023/12/11 02:58:02;;;;;;;10.80;3.60;;;;;;;4.09;100.00;99101.27;105162;1257;81368;-56
2023/12/11 03:00:31;;;;;;;11.80;4.00;;;;;;;4.09;100.00;99091.56;105238;1257;72168;-56
2023/12/11 03:02:59;;;;;;;10.70;3.60;;;;;;;4.10;100.00;99080.84;105207;1257;69122;-57
2023/12/11 03:05:28;;;;;;;8.90;3.10;;;;;;;4.09;100.00;99080.15;105200;1261;69193;-57
2023/12/11 03:07:56;;;;;;;9.70;3.20;;;;;;;4.09;100.00;99074.63;105149;1257;74409;-57
2023/12/11 03:10:24;;;;;;;13.70;3.70;;;;;;;4.09;100.00;99073.40;105175;1263;81636;-56
2023/12/11 03:12:52;;;;;;;9.30;3.10;;;;;;;4.09;100.00;99066.67;105124;1257;71404;-56
2023/12/11 03:15:20;;;;;;;11.30;3.00;;;;;;;4.09;100.00;99062.70;105145;1261;69084;-57
2023/12/11 03:17:49;;;;;;;10.40;3.00;;;;;;;4.09;100.00;99067.37;105165;1261;69220;-57
2023/12/11 03:20:17;;;;;;;9.00;2.90;;;;;;;4.09;100.00;99063.21;105112;1262;74909;-56
2023/12/11 03:22:46;;;;;;;5.50;2.40;;;;;;;4.10;100.00;99058.02;105217;1260;81443;-57
2023/12/11 03:25:14;;;;;;;9.60;3.10;;;;;;;4.10;100.00;99053.17;105164;1257;72967;-56
2023/12/11 03:27:43;;;;;;;8.10;2.70;;;;;;;4.10;100.00;99051.79;105258;1256;69221;-57
2023/12/11 03:30:11;;;;;;;9.60;2.70;;;;;;;4.10;100.00;99048.67;105199;1260;69132;-57
2023/12/11 03:32:39;;;;;;;6.20;2.30;;;;;;;4.10;100.00;99044.53;105120;1257;73053;-57
2023/12/11 03:35:08;;;;;;;7.90;3.30;;;;;;;4.11;100.00;99037.41;105108;1257;82728;-58
2023/12/11 03:37:36;;;;;;;10.90;3.20;;;;;;;4.12;100.00;99034.61;105152;1257;71768;-58
2023/12/11 03:40:05;;;;;;;6.20;2.90;;;;;;;4.13;100.00;99031.10;105110;1256;69091;-58
2023/12/11 03:42:33;;;;;;;8.10;2.40;;;;;;;4.14;100.00;99029.34;105226;1257;69216;-57
2023/12/11 03:45:02;;;;;;;9.70;3.00;;;;;;;4.15;100.00;99024.48;105158;1260;73627;-57
2023/12/11 03:47:30;;;;;;;5.50;2.10;;;;;;;4.16;100.00;99017.38;105206;1262;81453;-57
2023/12/11 03:49:59;;;;;;;7.40;2.50;;;;;;;4.17;100.00;99019.75;105237;1257;73129;-57
2023/12/11 03:52:27;;;;;;;7.90;2.40;;;;;;;4.18;100.00;99015.71;105176;1259;69249;-57
2023/12/11 03:54:55;;;;;;;5.10;1.80;;;;;;;4.19;100.00;99009.81;105143;1262;69211;-57
2023/12/11 03:57:24;;;;;;;5.30;2.00;;;;;;;4.21;100.00;99009.74;105213;1256;73910;-56
2023/12/11 03:59:52;;;;;;;12.00;2.50;;;;;;;4.21;100.00;99004.39;105152;1261;81242;-57
2023/12/11 04:02:20;;;;;;;9.00;3.00;;;;;;;4.21;100.00;99002.48;105147;1257;70762;-57
2023/12/11 04:04:48;;;;;;;14.50;4.80;;;;;;;4.22;100.00;99000.21;105114;1261;69128;-54
2023/12/11 04:07:17;;;;;;;4.70;2.60;;;;;;;4.23;100.00;98997.58;105204;1260;69295;-55
2023/12/11 04:09:46;;;;;;;9.00;2.70;;;;;;;4.24;100.00;98991.84;105180;1257;73863;-56
2023/12/11 04:12:14;;;;;;;6.70;2.30;;;;;;;4.25;100.00;98994.23;105138;1261;81912;-55
2023/12/11 04:14:42;;;;;;;5.50;1.80;;;;;;;4.24;100.00;98990.96;105169;1261;73007;-55
2023/12/11 04:17:10;;;;;;;5.50;2.10;;;;;;;4.25;100.00;98990.09;105117;1260;69526;-55
2023/12/11 04:19:38;;;;;;;6.30;2.50;;;;;;;4.24;100.00;98992.16;105165;1260;69177;-54
2023/12/11 04:22:07;;;;;;;4.90;1.90;;;;;;;4.25;100.00;98987.48;105170;1260;73087;-54
2023/12/11 04:24:35;;;;;;;6.10;2.00;;;;;;;4.25;100.00;98976.58;105151;1262;82684;-54
2023/12/11 04:27:04;;;;;;;5.30;1.80;;;;;;;4.26;100.00;98983.14;105180;1257;71759;-57
2023/12/11 04:29:32;;;;;;;4.00;1.60;;;;;;;4.27;100.00;98976.70;105219;1256;69225;-55
2023/12/11 04:32:00;;;;;;;3.30;1.50;;;;;;;4.28;100.00;98982.05;105197;1262;69230;-56
2023/12/11 04:34:29;;;;;;;4.10;1.30;;;;;;;4.27;100.00;98980.86;105167;1261;72481;-53
2023/12/11 04:36:57;;;;;;;4.70;1.80;;;;;;;4.26;100.00;98982.08;105139;1260;82511;-51
2023/12/11 04:39:25;;;;;;;3.70;1.80;;;;;;;4.27;100.00;98985.36;105167;1262;71660;-55
2023/12/11 04:41:53;;;;;;;4.80;1.70;;;;;;;4.26;100.00;98986.23;105133;1257;69181;-55
2023/12/11 04:44:22;;;;;;;4.10;1.50;;;;;;;4.27;100.00;98985.70;105433;1262;69834;-55
2023/12/11 04:46:50;;;;;;;2.90;1.50;;;;;;;4.26;100.00;98978.63;105214;1257;72692;-53
2023/12/11 04:49:18;;;;;;;3.30;1.40;;;;;;;4.25;100.00;98970.70;105142;1260;82688;-50
2023/12/11 04:51:47;;;;;;;5.30;1.60;;;;;;;4.26;100.00;98975.34;105353;1260;71975;-54
2023/12/11 04:54:15;;;;;;;3.20;1.20;;;;;;;4.25;100.00;98972.61;105184;1257;69569;-51
2023/12/11 04:56:43;;;;;;;5.80;2.40;;;;;;;4.25;100.00;98964.67;105255;1258;69294;-54
2023/12/11 04:59:11;;;;;;;3.40;1.30;;;;;;;4.26;100.00;98969.45;105164;1257;72181;-54
2023/12/11 05:01:39;;;;;;;5.00;1.70;;;;;;;4.27;100.00;98978.27;105135;1262;82680;-53
2023/12/11 05:04:08;;;;;;;5.20;2.20;;;;;;;4.25;100.00;98968.45;105150;1260;71667;-53
2023/12/11 05:06:36;;;;;;;4.40;1.50;;;;;;;4.25;100.00;98973.48;105171;1260;69704;-52
2023/12/11 05:09:04;;;;;;;7.90;2.70;;;;;;;4.28;100.00;98973.40;105196;1260;69281;-51
2023/12/11 05:11:32;;;;;;;2.80;1.10;;;;;;;4.30;100.00;98968.83;105227;1260;72795;-53
2023/12/11 05:14:01;;;;;;;3.60;1.50;;;;;;;4.32;100.00;98970.15;105176;1262;81236;-51
2023/12/11 05:16:29;;;;;;;4.60;1.50;;;;;;;4.33;100.00;98965.81;105166;1260;71593;-54
2023/12/11 05:18:57;;;;;;;4.00;1.40;;;;;;;4.34;100.00;98969.38;105143;1260;69857;-53
2023/12/11 05:21:25;;;;;;;3.80;1.90;;;;;;;4.35;100.00;98966.05;105163;1260;69200;-52
2023/12/11 05:23:55;;;;;;;5.40;1.80;;;;;;;4.36;100.00;98963.09;105110;1257;73455;-52
2023/12/11 05:26:23;;;;;;;3.20;1.90;;;;;;;4.38;100.00;98963.70;105225;1261;81411;-50
2023/12/11 05:28:51;;;;;;;1.70;1.20;;;;;;;4.40;100.00;98962.95;105252;1263;71756;-51
2023/12/11 05:31:21;;;;;;;3.20;1.30;;;;;;;4.42;100.00;98962.84;105217;1260;69177;-52
2023/12/11 05:33:49;;;;;;;4.70;1.40;;;;;;;4.43;100.00;98963.34;105195;1262;69200;-53
2023/12/11 05:36:17;;;;;;;4.20;1.40;;;;;;;4.46;100.00;98966.70;105164;1257;72870;-52
2023/12/11 05:38:45;;;;;;;3.90;1.30;;;;;;;4.49;100.00;98965.38;105147;1260;81495;-53
2023/12/11 05:41:13;;;;;;;4.30;1.20;;;;;;;4.54;100.00;98964.19;105127;1257;72432;-53
2023/12/11 05:43:42;;;;;;;5.30;1.20;;;;;;;4.60;100.00;98968.14;105200;1261;69929;-54
2023/12/11 05:46:11;;;;;;;5.50;1.20;;;;;;;4.63;100.00;98963.31;105139;1261;70030;-54
2023/12/11 05:48:39;;;;;;;4.70;1.20;;;;;;;4.68;100.00;98966.79;105142;1263;73058;-53
2023/12/11 05:51:08;;;;;;;4.40;1.40;;;;;;;4.72;100.00;98965.25;105196;1261;82109;-53
2023/12/11 05:53:36;;;;;;;3.70;1.00;;;;;;;4.78;100.00;98966.44;105124;1262;70159;-53
2023/12/11 05:56:05;;;;;;;5.10;1.20;;;;;;;4.82;100.00;98966.11;105128;1257;69848;-50
2023/12/11 05:58:33;;;;;;;3.80;1.30;;;;;;;4.84;100.00;98968.95;105175;1261;69756;-51
2023/12/11 06:01:01;;;;;;;4.20;1.40;;;;;;;4.89;100.00;98967.08;105149;1256;71700;-53
2023/12/11 06:03:29;;;;;;;4.00;1.10;;;;;;;4.93;100.00;98969.69;105155;1260;81438;-53
2023/12/11 06:05:58;;;;;;;3.20;0.90;;;;;;;4.97;100.00;98969.40;105219;1257;72177;-54
2023/12/11 06:08:26;;;;;;;3.30;1.10;;;;;;;5.00;100.00;98964.05;105154;1270;69106;-53
2023/12/11 06:10:54;;;;;;;4.80;1.40;;;;;;;5.04;100.00;98964.43;105254;1257;69196;-54
2023/12/11 06:13:23;;;;;;;4.40;1.20;;;;;;;5.07;100.00;98965.02;105139;1260;71403;-54
2023/12/11 06:15:51;;;;;;;2.20;1.00;;;;;;;5.08;100.00;98966.36;105139;1262;82722;-51
2023/12/11 06:18:19;;;;;;;5.50;1.60;;;;;;;5.09;100.00;98969.77;105199;1262;71971;-53
2023/12/11 06:20:48;;;;;;;3.30;1.20;;;;;;;5.11;100.00;98976.13;105119;1260;69173;-53
2023/12/11 06:23:16;;;;;;;3.70;1.30;;;;;;;5.11;100.00;98978.69;105157;1263;69929;-53
2023/12/11 06:25:44;;;;;;;3.30;1.30;;;;;;;5.12;100.00;98978.83;105155;1263;73242;-51
2023/12/11 06:28:12;;;;;;;2.90;1.00;;;;;;;5.12;100.00;98972.80;105121;1263;81588;-55
2023/12/11 06:30:40;;;;;;;6.40;1.70;;;;;;;5.09;100.00;98978.26;105170;1262;71989;-51
2023/12/11 06:33:09;;;;;;;4.50;1.60;;;;;;;5.10;100.00;98975.14;105111;1270;69128;-53
2023/12/11 06:35:37;;;;;;;10.00;2.80;;;;;;;5.14;100.00;98980.87;105205;1262;69119;-53
2023/12/11 06:38:05;;;;;;;7.10;2.20;;;;;;;5.20;100.00;98977.70;105191;1262;73277;-53
2023/12/11 06:40:34;;;;;;;9.00;2.20;;;;;;;5.28;100.00;98977.55;105113;1261;81405;-53
2023/12/11 06:43:02;;;;;;;9.80;2.60;;;;;;;5.43;100.00;98982.02;105123;1257;70220;-53
2023/12/11 06:45:30;;;;;;;6.30;2.10;;;;;;;5.67;100.00;98980.54;105240;1257;69083;-53
2023/12/11 06:48:04;;;;;;;5.00;1.80;;;;;;;5.88;100.00;98984.90;105182;1262;69141;-55
2023/12/11 06:50:33;;;;;;;5.20;2.20;;;;;;;6.02;100.00;98985.23;105220;1262;71856;-53
2023/12/11 06:53:01;;;;;;;9.00;2.30;;;;;;;6.14;100.00;98982.98;105126;1260;82787;-53
2023/12/11 06:55:29;;;;;;;6.60;2.10;;;;;;;6.26;100.00;98986.31;105131;1257;71695;-53
2023/12/11 06:57:57;;;;;;;7.50;2.50;;;;;;;6.36;100.00;98990.21;105137;1260;69122;-55
2023/12/11 07:00:26;;;;;;;7.60;1.90;;;;;;;6.45;100.00;98988.11;105170;1260;69884;-55
2023/12/11 07:02:55;;;;;;;6.50;1.60;;;;;;;6.57;100.00;98987.77;105207;1260;72649;-55
2023/12/11 07:05:23;;;;;;;7.20;1.70;;;;;;;6.67;100.00;98990.44;105244;1260;82636;-52
2023/12/11 07:07:53;;;;;;;5.20;1.40;;;;;;;6.73;100.00;98991.09;105100;1257;73955;-55
2023/12/11 07:10:21;;;;;;;5.20;1.70;;;;;;;6.81;100.00;98998.39;105131;1269;69239;-54
2023/12/11 07:12:50;;;;;;;5.50;1.40;;;;;;;6.88;100.00;99001.66;105154;1260;69132;-54
2023/12/11 07:15:19;;;;;;;3.30;1.40;;;;;;;6.93;100.00;99001.11;105222;1263;73181;-55
2023/12/11 07:17:47;;;;;;;6.00;1.40;;;;;;;6.93;100.00;98994.52;105194;1260;81425;-54
2023/12/11 07:20:16;;;;;;;7.90;1.70;;;;;;;6.92;100.00;99000.96;105110;1258;72120;-55
2023/12/11 07:22:45;;;;;;;6.20;1.80;;;;;;;6.96;100.00;99000.33;105153;1263;69095;-56
2023/12/11 07:25:14;;;;;;;5.10;1.50;;;;;;;6.99;100.00;99003.66;105171;1260;69265;-56
2023/12/11 07:27:43;;;;;;;3.90;1.30;;;;;;;7.03;100.00;99007.81;105153;1261;73499;-55
2023/12/11 07:30:14;;;;;;;6.80;1.90;;;;;;;7.06;100.00;99008.20;105266;1261;82725;-56
2023/12/11 07:32:42;;;;;;;5.80;1.60;;;;;;;7.09;100.00;99004.07;105187;1256;71311;-56
2023/12/11 07:35:11;;;;;;;8.90;1.50;;;;;;;7.13;100.00;99011.19;105149;1260;69134;-56
2023/12/11 07:37:41;;;;;;;4.60;1.50;;;;;;;7.22;100.00;99009.38;105169;1260;69204;-56
2023/12/11 07:40:10;;;;;;;5.70;1.50;;;;;;;7.29;100.00;99012.89;105193;1260;74294;-56
2023/12/11 07:42:38;;;;;;;6.40;1.40;;;;;;;7.35;100.00;99017.10;105166;1270;81783;-56
2023/12/11 07:45:07;;;;;;;5.80;1.40;;;;;;;7.40;100.00;99016.54;105095;1258;72822;-55
2023/12/11 07:47:35;;;;;;;6.60;1.60;;;;;;;7.42;100.00;99011.24;105146;1263;69075;-56
2023/12/11 07:50:04;;;;;;;5.90;1.70;;;;;;;7.43;100.00;99016.24;105181;1263;69189;-52
2023/12/11 07:52:33;;;;;;;7.50;1.80;;;;;;;7.42;100.00;99026.68;105151;1257;72829;-56
2023/12/11 07:55:01;;;;;;;4.90;1.30;;;;;;;7.45;100.00;99012.68;105142;1260;82726;-57
2023/12/11 07:57:30;;;;;;;5.00;1.30;;;;;;;7.45;100.00;99019.65;105186;1260;71670;-55
2023/12/11 07:59:59;;;;;;;6.10;1.50;;;;;;;7.46;100.00;99013.33;105190;1260;69118;-56
2023/12/11 08:02:27;;;;;;;5.40;1.50;;;;;;;7.47;100.00;99013.46;105178;1268;69202;-56
2023/12/11 08:04:55;;;;;;;4.10;1.30;;;;;;;7.46;100.00;99016.98;105165;1261;73292;-55
2023/12/11 08:07:23;;;;;;;5.70;1.10;;;;;;;7.47;100.00;99023.36;105121;1263;83320;-56
2023/12/11 08:09:52;;;;;;;4.40;1.50;;;;;;;7.49;100.00;99031.78;105126;1261;71692;-55
2023/12/11 08:12:20;;;;;;;6.10;1.80;;;;;;;7.51;100.00;99028.89;105170;1270;69192;-55
2023/12/11 08:14:48;;;;;;;5.20;1.30;;;;;;;7.52;100.00;99031.98;105172;1261;69234;-52
2023/12/11 08:17:17;;;;;;;7.20;1.50;;;;;;;7.54;100.00;99029.61;105175;1257;73057;-54
2023/12/11 08:19:45;;;;;;;4.50;1.60;;;;;;;7.56;100.00;99034.21;105151;1260;82490;-56
2023/12/11 08:22:13;;;;;;;6.50;1.40;;;;;;;7.57;100.00;99029.65;105116;1263;71883;-56
2023/12/11 08:24:43;;;;;;;4.30;1.30;;;;;;;7.59;100.00;99030.61;105169;1262;69148;-56
2023/12/11 08:27:11;;;;;;;5.20;1.50;;;;;;;7.61;100.00;99031.56;105137;1258;69102;-55
2023/12/11 08:29:40;;;;;;;6.20;1.50;;;;;;;7.63;100.00;99029.59;105137;1257;73543;-55
2023/12/11 08:32:08;;;;;;;6.00;1.90;;;;;;;7.62;100.00;99033.45;105142;1260;82809;-56
2023/12/11 08:34:38;;;;;;;6.30;2.00;;;;;;;7.62;100.00;99038.14;105198;1258;71815;-56
2023/12/11 08:37:06;;;;;;;10.00;3.20;;;;;;;7.64;100.00;99043.24;105167;1260;69218;-54
2023/12/11 08:39:37;;;;;;;8.00;4.20;;;;;;;7.66;100.00;99049.08;105168;1261;69183;-54
2023/12/11 08:42:06;;;;;;;6.40;1.90;;;;;;;7.69;100.00;99053.30;105157;1263;73062;-56
2023/12/11 08:44:34;;;;;;;14.80;4.30;;;;;;;7.76;100.00;99056.92;105192;1260;81415;-54
2023/12/11 08:47:02;;;;;;;15.60;5.10;;;;;;;7.90;100.00;99051.96;105102;1257;71805;-55
2023/12/11 08:49:30;;;;;;;12.00;4.70;;;;;;;8.04;100.00;99054.05;105140;1270;69131;-54
2023/12/11 08:52:00;;;;;;;9.00;2.70;;;;;;;8.18;100.00;99059.98;105134;1260;69203;-54
2023/12/11 08:54:28;;;;;;;8.70;2.40;;;;;;;8.33;100.00;99055.59;105190;1260;71877;-54
2023/12/11 08:56:56;;;;;;;6.60;2.60;;;;;;;8.41;100.00;99052.08;105127;1270;81416;-54
2023/12/11 08:59:25;;;;;;;7.50;1.80;;;;;;;8.46;100.00;99053.73;105118;1261;71738;-55
2023/12/11 09:01:53;;;;;;;7.30;2.20;;;;;;;8.50;100.00;99059.98;105151;1258;69247;-54
2023/12/11 09:04:21;;;;;;;6.80;2.40;;;;;;;8.51;100.00;99052.83;105112;1260;69189;-56
2023/12/11 09:06:50;;;;;;;6.30;2.50;;;;;;;8.53;100.00;99054.11;105120;1257;73244;-53
2023/12/11 09:09:18;;;;;;;5.80;1.50;;;;;;;8.53;100.00;99064.71;105170;1261;81601;-55
2023/12/11 09:11:48;;;;;;;7.30;2.00;;;;;;;8.55;100.00;99064.31;105117;1260;70545;-51
2023/12/11 09:14:16;;;;;;;7.40;2.40;;;;;;;8.56;99.92;99060.92;105146;1261;69154;-53
2023/12/11 09:16:44;;;;;;;7.40;2.50;;;;;;;8.58;99.87;99061.33;105095;1257;69182;-54
2023/12/11 09:19:13;;;;;;;10.00;2.50;;;;;;;8.59;99.76;99058.16;105099;1260;74189;-55
2023/12/11 09:21:41;;;;;;;7.70;1.70;;;;;;;8.61;99.70;99055.27;105074;1260;81685;-55
2023/12/11 09:24:11;;;;;;;10.10;2.90;;;;;;;8.63;99.57;99054.63;105158;1262;71876;-53
2023/12/11 09:26:39;;;;;;;5.70;1.90;;;;;;;8.65;99.43;99049.98;105174;1258;69069;-55
2023/12/11 09:29:07;;;;;;;5.50;1.90;;;;;;;8.69;99.39;99051.38;105150;1260;69195;-55
2023/12/11 09:31:37;;;;;;;7.00;2.10;;;;;;;8.73;99.11;99050.16;105134;1257;72028;-52
2023/12/11 09:34:05;;;;;;;9.30;1.80;;;;;;;8.78;99.08;99048.86;105180;1257;82090;-55
2023/12/11 09:36:34;;;;;;;8.20;1.60;;;;;;;8.84;98.87;99050.46;105180;1257;72095;-55
2023/12/11 09:39:04;;;;;;;6.70;1.60;;;;;;;8.90;98.54;99050.12;105127;1261;69147;-52
2023/12/11 09:41:33;;;;;;;7.10;1.80;;;;;;;8.96;98.51;99047.93;105114;1270;69197;-55
2023/12/11 09:44:03;;;;;;;4.40;1.50;;;;;;;9.00;98.19;99047.00;105182;1257;71954;-56
2023/12/11 09:46:38;;;;;;;11.00;3.10;;;;;;;9.04;97.90;99048.04;105222;1260;81660;-55
2023/12/11 09:49:07;;;;;;;7.50;2.40;;;;;;;9.08;97.74;99049.56;105195;1258;72655;-53
2023/12/11 09:51:36;;;;;;;10.10;3.00;;;;;;;9.11;97.34;99044.66;105184;1258;69149;-55
2023/12/11 09:54:05;;;;;;;11.60;4.00;;;;;;;9.17;97.10;99043.66;105143;1260;69135;-55
2023/12/11 09:56:33;;;;;;;10.80;3.60;;;;;;;9.29;97.08;99036.23;105191;1257;74038;-55
2023/12/11 09:59:02;;;;;;;4.80;1.50;;;;;;;9.41;96.80;99033.70;105137;1262;81505;-55
2023/12/11 10:01:30;;;;;;;7.40;1.60;;;;;;;9.50;96.17;99030.93;105144;1260;72873;-54
2023/12/11 10:03:59;;;;;;;7.70;2.10;;;;;;;9.57;96.01;99023.23;105123;1258;69180;-52
2023/12/11 10:06:28;;;;;;;10.70;2.00;;;;;;;9.70;96.04;99014.64;105217;1257;69536;-55
2023/12/11 10:08:56;;;;;;;8.40;2.00;;;;;;;9.81;95.87;99007.94;105122;1257;72856;-54
2023/12/11 10:11:26;;;;;;;7.30;2.20;;;;;;;9.91;95.50;99005.44;105106;1260;80797;-55
2023/12/11 10:13:54;;;;;;;4.50;1.50;;;;;;;10.03;95.27;99001.11;105136;1263;71907;-56
2023/12/11 10:16:29;;;;;;;6.50;1.60;;;;;;;10.20;95.32;98996.33;105109;1258;69185;-54
2023/12/11 10:19:00;;;;;;;10.20;2.90;;;;;;;10.30;94.94;98996.45;105121;1261;69638;-52
2023/12/11 10:21:39;;;;;;;5.70;1.60;;;;;;;10.39;94.48;99000.48;105166;1258;73404;-51
2023/12/11 10:24:16;;;;;;;6.00;1.60;;;;;;;10.39;93.54;98996.07;105142;1258;80435;-56
2023/12/11 10:26:46;;;;;;;7.40;1.80;;;;;;;10.33;92.27;98987.86;105133;1256;71896;-53
2023/12/11 10:29:24;;;;;;;5.80;1.90;;;;;;;10.24;91.63;98994.50;105169;1257;69808;-55
2023/12/11 10:31:59;;;;;;;5.30;1.60;;;;;;;10.14;91.48;98988.42;105202;1258;69092;-53
2023/12/11 10:34:41;;;;;;;4.30;1.30;;;;;;;10.08;91.56;98978.46;105142;1257;71786;-54
2023/12/11 10:37:13;;;;;;;9.30;1.70;;;;;;;10.04;91.53;98977.98;105153;1258;81698;-53
2023/12/11 10:39:55;;;;;;;6.10;1.60;;;;;;;10.01;91.20;98972.96;105189;1257;72864;-55
2023/12/11 10:42:25;;;;;;;5.80;1.90;;;;;;;9.97;91.37;98971.28;105120;1260;69151;-54
2023/12/11 10:44:54;;;;;;;5.00;1.70;;;;;;;9.93;91.30;98969.73;105125;1260;69211;-54
2023/12/11 10:47:23;;;;;;;6.10;2.10;;;;;;;9.93;91.55;98966.42;105209;1260;72975;-55
2023/12/11 10:49:52;;;;;;;7.20;1.90;;;;;;;9.94;91.50;98966.39;105195;1260;81560;-54
2023/12/11 10:52:20;;;;;;;6.70;1.60;;;;;;;9.93;91.35;98959.95;105111;1256;70955;-53
2023/12/11 10:54:48;;;;;;;6.70;1.70;;;;;;;9.93;91.18;98958.89;105011;1258;166588;-53
2023/12/11 10:57:16;;;;;;;5.40;1.60;;;;;;;9.94;91.01;98953.46;105128;1261;69185;-55
2023/12/11 10:59:45;;;;;;;7.70;2.40;;;;;;;9.93;90.81;98956.83;105185;1261;74213;-54
2023/12/11 11:02:16;;;;;;;6.50;1.70;;;;;;;9.89;90.84;98957.59;105113;1257;81971;-54
2023/12/11 11:04:44;;;;;;;;;;;;;;;9.86;90.93;98949.77;105159;1257;71730;-54
2023/12/11 11:07:18;;;;;;;6.90;1.80;;;;;;;9.82;90.52;98952.41;105194;1258;69179;-52
2023/12/11 11:09:59;;;;;;;5.50;1.40;;;;;;;9.77;90.72;98950.58;105167;1258;69183;-55
2023/12/11 11:12:43;;;;;;;6.60;1.40;;;;;;;9.74;90.74;98952.84;105184;1261;74233;-54
2023/12/11 11:15:23;;;;;;;7.10;1.90;;;;;;;9.72;90.87;98952.63;105112;1258;81668;-53
2023/12/11 11:18:00;;;;;;;6.00;1.80;;;;;;;9.72;91.02;98949.46;105206;1258;72206;-53
2023/12/11 11:20:30;;;;;;;6.70;2.00;;;;;;;9.69;90.91;98948.25;105152;1260;69196;-54
2023/12/11 11:23:17;;;;;;;7.90;1.80;;;;;;;9.70;91.22;98944.35;105182;1257;69676;-52
2023/12/11 11:25:53;;;;;;;6.60;1.80;;;;;;;9.74;91.27;98940.83;105164;1258;72925;-54
2023/12/11 11:28:50;;;;;;;7.10;1.90;;;;;;;9.74;91.24;98940.61;105152;1260;81487;-51
2023/12/11 11:31:19;;;;;;;7.70;1.90;;;;;;;9.78;91.32;98933.43;105167;1257;70833;-53
2023/12/11 11:33:58;;;;;;;4.70;1.40;;;;;;;9.80;91.35;98934.37;105122;1260;69112;-54